createdAt,value
2023-02-14T00:02:15.718Z,101608.22
2023-02-14T00:04:45.900Z,101618.72
2023-02-14T00:07:14.764Z,101614.00
2023-02-14T00:09:42.951Z,101630.47
2023-02-14T00:12:11.531Z,101627.09
2023-02-14T00:14:58.403Z,101611.56
2023-02-14T00:17:26.864Z,101624.59
2023-02-14T00:19:55.028Z,101619.22
2023-02-14T00:22:23.311Z,101622.06
2023-02-14T00:24:51.918Z,101617.53
2023-02-14T00:27:20.117Z,101615.44
2023-02-14T00:29:48.400Z,101617.19
2023-02-14T00:32:16.925Z,101612.84
2023-02-14T00:34:46.165Z,101617.81
2023-02-14T00:37:14.371Z,101620.72
2023-02-14T00:39:42.910Z,101631.72
2023-02-14T00:42:11.037Z,101638.16
2023-02-14T00:44:40.024Z,101641.16
2023-02-14T00:47:08.615Z,101634.50
2023-02-14T00:49:36.703Z,101629.53
2023-02-14T00:52:05.466Z,101640.59
2023-02-14T00:54:33.966Z,101635.16
2023-02-14T00:57:02.092Z,101630.22
2023-02-14T00:59:30.741Z,101626.22
2023-02-14T01:01:59.056Z,101618.56
2023-02-14T01:04:27.338Z,101615.44
2023-02-14T01:06:55.527Z,101625.56
2023-02-14T01:09:24.090Z,101612.38
2023-02-14T01:11:52.350Z,101612.59
2023-02-14T01:14:20.596Z,101605.88
2023-02-14T01:16:50.696Z,101603.31
2023-02-14T01:19:18.825Z,101610.09
2023-02-14T01:21:47.167Z,101603.75
2023-02-14T01:24:15.595Z,101602.41
2023-02-14T01:26:44.311Z,101600.88
2023-02-14T01:29:12.665Z,101596.84
2023-02-14T01:31:41.307Z,101589.72
2023-02-14T01:34:09.567Z,101589.34
2023-02-14T01:36:39.406Z,101593.63
2023-02-14T01:39:13.613Z,101587.31
2023-02-14T01:41:44.128Z,101589.25
2023-02-14T01:44:15.259Z,101584.75
2023-02-14T01:46:44.887Z,101581.69
2023-02-14T01:49:27.451Z,101594.03
2023-02-14T01:52:05.260Z,101591.88
2023-02-14T01:54:38.736Z,101594.69
2023-02-14T01:57:12.362Z,101580.91
2023-02-14T01:59:55.167Z,101586.50
2023-02-14T02:02:26.201Z,101582.94
2023-02-14T02:04:56.647Z,101585.28
2023-02-14T02:07:29.377Z,101581.19
2023-02-14T02:10:03.726Z,101585.87
2023-02-14T02:12:35.620Z,101576.66
2023-02-14T02:15:06.083Z,101568.38
2023-02-14T02:18:05.807Z,101555.22
2023-02-14T02:21:01.698Z,101566.34
2023-02-14T02:24:02.146Z,101566.28
2023-02-14T02:26:30.242Z,101559.50
2023-02-14T02:29:29.932Z,101551.53
2023-02-14T02:32:19.770Z,101558.31
2023-02-14T02:35:19.192Z,101565.09
2023-02-14T02:38:16.647Z,101570.13
2023-02-14T02:40:54.553Z,101556.69
2023-02-14T02:43:22.754Z,101555.37
2023-02-14T02:46:20.572Z,101548.63
2023-02-14T02:49:42.557Z,101543.41
2023-02-14T02:53:03.303Z,101544.31
2023-02-14T02:55:57.792Z,101551.31
2023-02-14T02:58:35.203Z,101554.34
2023-02-14T03:01:09.681Z,101549.69
2023-02-14T03:03:58.038Z,101551.06
2023-02-14T03:06:26.071Z,101555.28
2023-02-14T03:08:54.444Z,101546.38
2023-02-14T03:11:24.738Z,101551.78
2023-02-14T03:14:26.389Z,101552.09
2023-02-14T03:17:37.578Z,101547.28
2023-02-14T03:20:32.919Z,101557.38
2023-02-14T03:23:14.675Z,101546.75
2023-02-14T03:26:04.870Z,101544.19
2023-02-14T03:28:43.888Z,101554.31
2023-02-14T03:31:28.288Z,101550.38
2023-02-14T03:34:25.761Z,101541.28
2023-02-14T03:37:12.671Z,101542.53
2023-02-14T03:39:46.040Z,101557.81
2023-02-14T03:42:23.868Z,101556.59
2023-02-14T03:44:55.373Z,101552.22
2023-02-14T03:47:30.011Z,101557.47
2023-02-14T03:50:13.340Z,101557.38
2023-02-14T03:52:44.355Z,101562.41
2023-02-14T03:55:17.147Z,101560.16
2023-02-14T03:57:48.481Z,101554.31
2023-02-14T04:00:19.063Z,101563.88
2023-02-14T04:02:56.206Z,101565.53
2023-02-14T04:05:27.294Z,101549.81
2023-02-14T04:07:58.582Z,101558.56
2023-02-14T04:10:27.101Z,101557.31
2023-02-14T04:12:55.579Z,101554.66
2023-02-14T04:15:23.998Z,101557.88
2023-02-14T04:18:10.612Z,101563.28
2023-02-14T04:20:39.447Z,101560.75
2023-02-14T04:23:07.579Z,101564.28
2023-02-14T04:25:35.572Z,101560.19
2023-02-14T04:28:06.366Z,101561.78
2023-02-14T04:30:34.811Z,101558.50
2023-02-14T04:33:03.843Z,101568.75
2023-02-14T04:35:32.420Z,101559.53
2023-02-14T04:38:04.846Z,101562.72
2023-02-14T04:40:33.948Z,101569.28
2023-02-14T04:43:02.121Z,101572.19
2023-02-14T04:45:30.500Z,101560.50
2023-02-14T04:47:59.020Z,101566.56
2023-02-14T04:50:27.141Z,101553.56
2023-02-14T04:52:55.313Z,101554.19
2023-02-14T04:55:24.298Z,101564.06
2023-02-14T04:57:52.384Z,101554.69
2023-02-14T05:00:20.754Z,101555.22
2023-02-14T05:02:53.686Z,101553.62
2023-02-14T05:05:21.777Z,101550.75
2023-02-14T05:07:50.544Z,101552.69
2023-02-14T05:10:18.959Z,101552.09
2023-02-14T05:12:47.002Z,101546.94
2023-02-14T05:15:15.638Z,101560.47
2023-02-14T05:17:43.917Z,101559.66
2023-02-14T05:20:12.142Z,101543.72
2023-02-14T05:22:40.613Z,101555.81
2023-02-14T05:25:09.040Z,101559.31
2023-02-14T05:27:37.173Z,101555.84
2023-02-14T05:30:06.345Z,101556.66
2023-02-14T05:32:35.230Z,101562.69
2023-02-14T05:35:04.094Z,101566.00
2023-02-14T05:37:32.404Z,101554.38
2023-02-14T05:40:00.692Z,101560.78
2023-02-14T05:42:28.854Z,101557.53
2023-02-14T05:44:57.208Z,101558.31
2023-02-14T05:47:25.546Z,101558.09
2023-02-14T05:49:53.647Z,101566.72
2023-02-14T05:52:22.029Z,101553.31
2023-02-14T05:54:50.227Z,101560.22
2023-02-14T05:57:18.350Z,101550.75
2023-02-14T05:59:46.855Z,101566.81
2023-02-14T06:02:16.255Z,101562.34
2023-02-14T06:04:44.772Z,101569.03
2023-02-14T06:07:13.104Z,101569.00
2023-02-14T06:09:41.426Z,101580.28
2023-02-14T06:12:09.815Z,101575.19
2023-02-14T06:14:38.296Z,101576.53
2023-02-14T06:17:06.761Z,101576.47
2023-02-14T06:19:35.923Z,101577.09
2023-02-14T06:22:04.667Z,101582.16
2023-02-14T06:24:32.937Z,101590.53
2023-02-14T06:27:01.483Z,101603.19
2023-02-14T06:29:29.563Z,101605.47
2023-02-14T06:31:58.097Z,101599.06
2023-02-14T06:34:26.766Z,101616.75
2023-02-14T06:36:54.911Z,101608.59
2023-02-14T06:39:23.121Z,101622.63
2023-02-14T06:41:51.545Z,101624.31
2023-02-14T06:44:19.891Z,101627.31
2023-02-14T06:46:48.711Z,101623.34
2023-02-14T06:49:17.416Z,101637.75
2023-02-14T06:51:45.868Z,101636.38
2023-02-14T06:54:14.195Z,101630.97
2023-02-14T06:56:42.721Z,101638.88
2023-02-14T06:59:11.017Z,101644.31
2023-02-14T07:01:39.665Z,101647.06
2023-02-14T07:04:08.079Z,101640.34
2023-02-14T07:06:37.353Z,101635.66
2023-02-14T07:09:06.318Z,101643.19
2023-02-14T07:11:34.705Z,101643.78
2023-02-14T07:14:03.167Z,101642.84
2023-02-14T07:16:31.602Z,101649.75
2023-02-14T07:19:00.607Z,101642.66
2023-02-14T07:21:29.311Z,101649.47
2023-02-14T07:23:57.508Z,101651.28
2023-02-14T07:26:25.990Z,101649.44
2023-02-14T07:28:54.290Z,101653.78
2023-02-14T07:31:23.693Z,101649.88
2023-02-14T07:33:52.661Z,101646.25
2023-02-14T07:36:20.762Z,101650.81
2023-02-14T07:38:49.714Z,101654.06
2023-02-14T07:41:18.050Z,101652.44
2023-02-14T07:43:46.144Z,101659.91
2023-02-14T07:46:15.153Z,101651.97
2023-02-14T07:48:43.614Z,101660.28
2023-02-14T07:51:11.724Z,101662.69
2023-02-14T07:53:40.328Z,101663.41
2023-02-14T07:56:08.687Z,101667.53
2023-02-14T07:58:37.229Z,101661.31
2023-02-14T08:01:05.663Z,101655.28
2023-02-14T08:03:34.159Z,101662.31
2023-02-14T08:06:02.304Z,101668.34
2023-02-14T08:08:31.919Z,101658.97
2023-02-14T08:11:00.681Z,101671.53
2023-02-14T08:13:29.016Z,101657.03
2023-02-14T08:16:06.708Z,101663.31
2023-02-14T08:18:41.075Z,101658.91
2023-02-14T08:21:11.337Z,101663.25
2023-02-14T08:23:39.873Z,101657.00
2023-02-14T08:26:08.435Z,101661.91
2023-02-14T08:28:36.714Z,101667.97
2023-02-14T08:31:05.417Z,101674.69
2023-02-14T08:33:33.936Z,101669.84
2023-02-14T08:36:02.730Z,101673.28
2023-02-14T08:38:31.500Z,101660.44
2023-02-14T08:41:03.782Z,101655.81
2023-02-14T08:43:34.504Z,101663.25
2023-02-14T08:46:03.228Z,101668.63
2023-02-14T08:48:31.500Z,101665.88
2023-02-14T08:51:00.452Z,101667.75
2023-02-14T08:53:29.103Z,101659.12
2023-02-14T08:56:02.016Z,101658.94
2023-02-14T08:58:32.777Z,101659.69
2023-02-14T09:01:01.654Z,101663.75
2023-02-14T09:03:30.448Z,101659.97
2023-02-14T09:06:09.184Z,101649.69
2023-02-14T09:08:39.029Z,101662.03
2023-02-14T09:11:19.420Z,101662.84
2023-02-14T09:13:49.068Z,101668.81
2023-02-14T09:16:19.011Z,101653.87
2023-02-14T09:18:47.745Z,101669.03
2023-02-14T09:21:18.973Z,101664.13
2023-02-14T09:23:47.646Z,101665.16
2023-02-14T09:26:17.704Z,101670.94
2023-02-14T09:28:46.998Z,101666.91
2023-02-14T09:31:21.427Z,101665.62
2023-02-14T09:34:09.776Z,101670.75
2023-02-14T09:36:56.842Z,101669.12
2023-02-14T09:39:25.226Z,101677.09
2023-02-14T09:42:15.006Z,101671.72
2023-02-14T09:44:54.830Z,101675.19
2023-02-14T09:47:39.376Z,101666.25
2023-02-14T09:50:18.326Z,101680.97
2023-02-14T09:52:51.545Z,101674.84
2023-02-14T09:55:20.108Z,101674.59
2023-02-14T09:58:08.243Z,101676.56
2023-02-14T10:01:05.021Z,101679.00
2023-02-14T10:03:59.569Z,101675.53
2023-02-14T10:06:48.774Z,101664.31
2023-02-14T10:09:54.346Z,101672.34
2023-02-14T10:12:31.287Z,101667.59
2023-02-14T10:15:04.903Z,101662.91
2023-02-14T10:17:49.337Z,101668.13
2023-02-14T10:20:28.069Z,101664.81
2023-02-14T10:23:14.761Z,101661.47
2023-02-14T10:25:54.312Z,101660.69
2023-02-14T10:28:31.442Z,101665.62
2023-02-14T10:31:19.453Z,101655.81
2023-02-14T10:33:57.894Z,101655.03
2023-02-14T10:36:26.324Z,101654.59
2023-02-14T10:39:30.828Z,101652.09
2023-02-14T10:42:21.333Z,101642.69
2023-02-14T10:45:02.723Z,101647.59
2023-02-14T10:47:57.334Z,101648.06
2023-02-14T10:50:34.963Z,101655.06
2023-02-14T10:53:26.419Z,101641.88
2023-02-14T10:56:04.186Z,101643.97
2023-02-14T10:58:38.441Z,101633.09
2023-02-14T11:01:14.232Z,101635.16
2023-02-14T11:04:06.635Z,101634.16
2023-02-14T11:06:34.985Z,101612.75
2023-02-14T11:09:04.449Z,101614.41
2023-02-14T11:11:39.094Z,101619.81
2023-02-14T11:14:32.370Z,101624.38
2023-02-14T11:17:20.150Z,101622.75
2023-02-14T11:19:58.771Z,101622.19
2023-02-14T11:22:31.285Z,101614.28
2023-02-14T11:25:17.976Z,101618.88
2023-02-14T11:27:50.233Z,101614.13
2023-02-14T11:30:26.435Z,101620.47
2023-02-14T11:32:57.561Z,101621.91
2023-02-14T11:35:33.908Z,101610.88
2023-02-14T11:38:05.976Z,101615.00
2023-02-14T11:40:36.181Z,101619.59
2023-02-14T11:43:14.852Z,101609.47
2023-02-14T11:45:45.918Z,101616.50
2023-02-14T11:48:37.177Z,101621.22
2023-02-14T11:51:15.724Z,101610.19
2023-02-14T11:53:45.850Z,101603.59
2023-02-14T11:56:20.343Z,101607.38
2023-02-14T11:58:54.498Z,101608.44
2023-02-14T12:01:38.882Z,101604.91
2023-02-14T12:04:23.346Z,101607.66
2023-02-14T12:06:51.522Z,101606.44
2023-02-14T12:09:22.734Z,101603.47
2023-02-14T12:11:57.930Z,101605.91
2023-02-14T12:14:35.491Z,101598.03
2023-02-14T12:17:25.935Z,101599.00
2023-02-14T12:20:12.146Z,101600.59
2023-02-14T12:22:58.316Z,101601.53
2023-02-14T12:25:40.026Z,101597.56
2023-02-14T12:28:18.837Z,101580.44
2023-02-14T12:30:49.553Z,101599.47
2023-02-14T12:33:23.740Z,101585.09
2023-02-14T12:35:55.413Z,101588.16
2023-02-14T12:38:39.413Z,101587.28
2023-02-14T12:41:23.911Z,101574.00
2023-02-14T12:44:12.619Z,101581.31
2023-02-14T12:46:51.455Z,101581.41
2023-02-14T12:49:44.513Z,101566.44
2023-02-14T12:53:01.734Z,101569.25
2023-02-14T12:55:49.561Z,101574.19
2023-02-14T12:58:45.166Z,101569.66
2023-02-14T13:01:16.330Z,101563.88
2023-02-14T13:04:05.198Z,101564.72
2023-02-14T13:06:41.256Z,101560.69
2023-02-14T13:09:24.649Z,101551.69
2023-02-14T13:11:56.236Z,101556.31
2023-02-14T13:14:38.126Z,101557.91
2023-02-14T13:17:44.130Z,101547.84
2023-02-14T13:20:43.319Z,101554.75
2023-02-14T13:23:43.588Z,101554.97
2023-02-14T13:26:14.476Z,101557.41
2023-02-14T13:28:55.955Z,101550.47
2023-02-14T13:31:24.992Z,101550.94
2023-02-14T13:34:28.562Z,101559.50
2023-02-14T13:36:59.371Z,101553.28
2023-02-14T13:39:44.329Z,101553.53
2023-02-14T13:42:13.200Z,101539.63
2023-02-14T13:44:50.272Z,101540.28
2023-02-14T13:47:24.632Z,101542.31
2023-02-14T13:50:03.218Z,101540.94
2023-02-14T13:52:48.775Z,101538.69
2023-02-14T13:55:21.867Z,101535.34
2023-02-14T13:58:07.654Z,101536.91
2023-02-14T14:00:41.613Z,101539.66
2023-02-14T14:03:36.742Z,101534.84
2023-02-14T14:06:10.897Z,101539.78
2023-02-14T14:08:48.840Z,101548.31
2023-02-14T14:11:23.135Z,101540.16
2023-02-14T14:13:59.297Z,101538.37
2023-02-14T14:16:35.756Z,101537.94
2023-02-14T14:19:04.896Z,101547.56
2023-02-14T14:21:43.692Z,101545.94
2023-02-14T14:24:27.597Z,101544.78
2023-02-14T14:27:24.647Z,101544.69
2023-02-14T14:30:01.491Z,101532.56
2023-02-14T14:32:33.856Z,101531.75
2023-02-14T14:35:05.743Z,101538.19
2023-02-14T14:37:56.633Z,101537.38
2023-02-14T14:40:35.769Z,101531.09
2023-02-14T14:43:31.820Z,101534.47
2023-02-14T14:46:02.741Z,101529.28
2023-02-14T14:48:42.473Z,101532.91
2023-02-14T14:51:28.581Z,101517.53
2023-02-14T14:54:08.579Z,101524.03
2023-02-14T14:56:44.918Z,101529.22
2023-02-14T14:59:37.400Z,101529.56
2023-02-14T15:02:41.491Z,101530.00
2023-02-14T15:05:23.334Z,101525.19
2023-02-14T15:07:52.371Z,101528.47
2023-02-14T15:10:26.598Z,101537.78
2023-02-14T15:13:17.462Z,101533.59
2023-02-14T15:15:51.360Z,101536.66
2023-02-14T15:18:21.359Z,101525.03
2023-02-14T15:20:51.919Z,101529.00
2023-02-14T15:23:24.104Z,101541.31
2023-02-14T15:25:52.777Z,101528.03
2023-02-14T15:28:28.456Z,101531.63
2023-02-14T15:31:05.474Z,101538.19
2023-02-14T15:33:34.664Z,101536.59
2023-02-14T15:36:06.803Z,101536.44
2023-02-14T15:38:41.927Z,101536.44
2023-02-14T15:41:12.580Z,101531.94
2023-02-14T15:43:41.367Z,101532.25
2023-02-14T15:46:18.532Z,101535.94
2023-02-14T15:48:48.387Z,101536.09
2023-02-14T15:51:24.653Z,101543.44
2023-02-14T15:54:05.509Z,101543.94
2023-02-14T15:56:43.265Z,101540.50
2023-02-14T15:59:14.775Z,101546.84
2023-02-14T16:02:03.841Z,101537.81
2023-02-14T16:04:35.252Z,101545.16
2023-02-14T16:07:23.406Z,101545.94
2023-02-14T16:10:20.493Z,101547.62
2023-02-14T16:13:01.258Z,101542.56
2023-02-14T16:15:35.786Z,101560.88
2023-02-14T16:18:16.720Z,101312.91
2023-02-14T16:20:48.888Z,101555.44
2023-02-14T16:23:19.391Z,101564.72
2023-02-14T16:25:48.947Z,101566.22
2023-02-14T16:28:17.792Z,101563.19
2023-02-14T16:30:53.002Z,101566.38
2023-02-14T16:33:25.393Z,101565.66
2023-02-14T16:35:55.109Z,101575.91
2023-02-14T16:38:23.722Z,101569.28
2023-02-14T16:40:54.491Z,101580.03
2023-02-14T16:43:23.529Z,101579.28
2023-02-14T16:45:54.020Z,101574.81
2023-02-14T16:48:22.955Z,101579.50
2023-02-14T16:50:51.706Z,101578.91
2023-02-14T16:53:27.909Z,101585.63
2023-02-14T16:55:58.039Z,101585.03
2023-02-14T16:58:34.686Z,101580.06
2023-02-14T17:01:07.958Z,101583.13
2023-02-14T17:03:36.168Z,101592.22
2023-02-14T17:06:06.288Z,101588.66
2023-02-14T17:08:35.604Z,101599.78
2023-02-14T17:11:05.755Z,101592.63
2023-02-14T17:13:40.635Z,101597.22
2023-02-14T17:16:11.986Z,101597.16
2023-02-14T17:18:43.029Z,101604.41
2023-02-14T17:21:11.915Z,101603.63
2023-02-14T17:23:40.270Z,101606.44
2023-02-14T17:26:09.110Z,101596.09
2023-02-14T17:28:37.670Z,101594.53
2023-02-14T17:31:06.916Z,101587.91
2023-02-14T17:33:37.152Z,101597.78
2023-02-14T17:36:10.094Z,101600.59
2023-02-14T17:38:43.354Z,101609.00
2023-02-14T17:41:29.937Z,101602.69
2023-02-14T17:44:01.997Z,101608.03
2023-02-14T17:46:31.578Z,101612.81
2023-02-14T17:49:02.744Z,101596.69
2023-02-14T17:51:31.708Z,101597.62
2023-02-14T17:53:59.847Z,101596.97
2023-02-14T17:56:28.220Z,101592.81
2023-02-14T17:58:57.092Z,101590.16
2023-02-14T18:01:28.025Z,101592.69
2023-02-14T18:03:56.845Z,101585.34
2023-02-14T18:06:26.724Z,101584.41
2023-02-14T18:08:57.963Z,101590.75
2023-02-14T18:11:28.101Z,101591.81
2023-02-14T18:13:58.813Z,101593.09
2023-02-14T18:16:27.667Z,101577.16
2023-02-14T18:18:56.328Z,101587.69
2023-02-14T18:21:25.447Z,101577.16
2023-02-14T18:23:54.368Z,101577.72
2023-02-14T18:26:22.679Z,101579.84
2023-02-14T18:28:53.418Z,101575.94
2023-02-14T18:31:22.216Z,101585.50
2023-02-14T18:33:51.000Z,101577.03
2023-02-14T18:36:21.812Z,101573.84
2023-02-14T18:38:50.595Z,101574.94
2023-02-14T18:41:21.453Z,101582.25
2023-02-14T18:43:50.879Z,101573.41
2023-02-14T18:46:22.565Z,101583.69
2023-02-14T18:48:52.258Z,101569.13
2023-02-14T18:51:30.486Z,101577.62
2023-02-14T18:54:01.438Z,101569.19
2023-02-14T18:56:33.488Z,101581.03
2023-02-14T18:59:05.857Z,101576.84
2023-02-14T19:01:37.767Z,101575.03
2023-02-14T19:04:08.995Z,101583.41
2023-02-14T19:06:38.219Z,101585.47
2023-02-14T19:09:12.347Z,101572.53
2023-02-14T19:11:41.558Z,101573.31
2023-02-14T19:14:12.717Z,101575.47
2023-02-14T19:16:50.355Z,101576.59
2023-02-14T19:19:20.037Z,101565.22
2023-02-14T19:21:48.675Z,101572.72
2023-02-14T19:24:19.507Z,101580.81
2023-02-14T19:26:48.425Z,101570.50
2023-02-14T19:29:18.659Z,101575.53
2023-02-14T19:31:49.910Z,101567.50
2023-02-14T19:34:23.681Z,101568.38
2023-02-14T19:36:53.488Z,101571.72
2023-02-14T19:39:23.223Z,101576.69
2023-02-14T19:41:52.316Z,101580.56
2023-02-14T19:44:24.167Z,101584.31
2023-02-14T19:46:56.711Z,101570.13
2023-02-14T19:49:27.846Z,101572.34
2023-02-14T19:51:57.334Z,101576.53
2023-02-14T19:54:26.081Z,101586.34
2023-02-14T19:56:56.248Z,101583.16
2023-02-14T19:59:25.346Z,101587.69
2023-02-14T20:01:54.675Z,101588.72
2023-02-14T20:04:27.606Z,101598.47
2023-02-14T20:06:57.106Z,101591.19
2023-02-14T20:09:26.614Z,101578.00
2023-02-14T20:11:57.852Z,101584.19
2023-02-14T20:14:43.654Z,101595.69
2023-02-14T20:17:19.782Z,101588.75
2023-02-14T20:19:49.075Z,101590.28
2023-02-14T20:22:17.888Z,101598.31
2023-02-14T20:24:46.647Z,101594.75
2023-02-14T20:27:15.439Z,101587.62
2023-02-14T20:29:45.015Z,101587.78
2023-02-14T20:32:15.831Z,101580.47
2023-02-14T20:34:45.292Z,101595.31
2023-02-14T20:37:14.661Z,101600.25
2023-02-14T20:39:43.632Z,101585.66
2023-02-14T20:42:12.348Z,101591.19
2023-02-14T20:44:41.598Z,101589.59
2023-02-14T20:47:11.316Z,101593.59
2023-02-14T20:49:44.655Z,101587.91
2023-02-14T20:52:13.447Z,101590.03
2023-02-14T20:54:42.227Z,101594.94
2023-02-14T20:57:10.617Z,101582.47
2023-02-14T20:59:44.343Z,101580.19
2023-02-14T21:02:13.906Z,101579.72
2023-02-14T21:04:44.426Z,101594.31
2023-02-14T21:07:13.210Z,101574.84
2023-02-14T21:09:41.681Z,101577.09
2023-02-14T21:12:10.401Z,101586.72
2023-02-14T21:14:39.362Z,101576.13
2023-02-14T21:17:07.717Z,101591.59
2023-02-14T21:19:36.337Z,101576.88
2023-02-14T21:22:06.330Z,101588.09
2023-02-14T21:24:34.812Z,101580.47
2023-02-14T21:27:04.460Z,101579.44
2023-02-14T21:29:33.282Z,101595.34
2023-02-14T21:32:03.618Z,101586.91
2023-02-14T21:34:32.296Z,101590.53
2023-02-14T21:37:01.502Z,101595.56
2023-02-14T21:39:31.057Z,101601.16
2023-02-14T21:42:01.048Z,101599.41
2023-02-14T21:44:48.263Z,101601.75
2023-02-14T21:47:16.964Z,101594.19
2023-02-14T21:50:04.515Z,101599.97
2023-02-14T21:52:34.300Z,101606.09
2023-02-14T21:55:03.246Z,101607.81
2023-02-14T21:57:34.954Z,101611.09
2023-02-14T22:00:05.619Z,101611.59
2023-02-14T22:02:40.125Z,101614.50
2023-02-14T22:05:08.796Z,101608.75
2023-02-14T22:07:37.764Z,101605.44
2023-02-14T22:10:06.747Z,101610.38
2023-02-14T22:12:35.310Z,101609.91
2023-02-14T22:15:03.779Z,101611.91
2023-02-14T22:17:33.352Z,101598.72
2023-02-14T22:20:01.801Z,101607.19
2023-02-14T22:22:29.928Z,101599.53
2023-02-14T22:25:01.189Z,101608.78
2023-02-14T22:27:30.245Z,101604.47
2023-02-14T22:29:58.581Z,101610.16
2023-02-14T22:32:26.848Z,101617.75
2023-02-14T22:34:55.288Z,101616.16
2023-02-14T22:37:23.367Z,101610.16
2023-02-14T22:39:51.770Z,101602.38
2023-02-14T22:42:20.317Z,101618.03
2023-02-14T22:44:48.537Z,101622.50
2023-02-14T22:47:16.778Z,101616.75
2023-02-14T22:49:45.947Z,101620.28
2023-02-14T22:52:14.151Z,101615.41
2023-02-14T22:54:42.738Z,101615.78
2023-02-14T22:57:11.094Z,101601.72
2023-02-14T22:59:40.036Z,101617.06
2023-02-14T23:02:09.908Z,101611.12
2023-02-14T23:04:38.692Z,101609.97
2023-02-14T23:07:06.973Z,101610.53
2023-02-14T23:09:35.094Z,101604.91
2023-02-14T23:12:04.780Z,101602.91
2023-02-14T23:14:51.892Z,101602.56
2023-02-14T23:17:46.527Z,101611.72
2023-02-14T23:20:43.902Z,101608.72
2023-02-14T23:23:12.344Z,101596.66
2023-02-14T23:25:43.258Z,101606.50
2023-02-14T23:28:11.343Z,101598.41
2023-02-14T23:30:39.897Z,101608.00
2023-02-14T23:33:08.302Z,101605.25
2023-02-14T23:35:37.851Z,101595.91
2023-02-14T23:38:06.694Z,101604.19
2023-02-14T23:40:55.121Z,101596.69
2023-02-14T23:43:23.621Z,101597.59
2023-02-14T23:45:52.411Z,101594.47
2023-02-14T23:48:20.684Z,101595.59
2023-02-14T23:50:49.232Z,101603.34
2023-02-14T23:53:17.775Z,101599.28
2023-02-14T23:55:46.178Z,101599.63
2023-02-14T23:58:14.540Z,101597.81
